Airfield :
LOGIN :

Register | Disclaimer

   EN    FR    IT 

 










Legend :    VFR   Marginal VFR   IFR   Intensive IFR   Very Intensive IFR
Visi :
Ceiling :
>= 8 km
>= 3000ft
5 to 8 km
1000 to 3000 ft
1500m to 5 km
500 to 1000 ft
800 to 1500m
200 to 500 ft
< 800m
< 200 ft
Symbols :   Thunderstorms  Fog  Heavy snow  Heavy precipitations  Wind > 20 kt
SIGMETs :     Misc.  Thunderstorms  Icing  Turbulence  Mountain Waves  Volcanic Ashes






- Airport Elevation : 512 ft
- IATA code : URO


LFOP - Rouen Vallée de Seine

CURRENT METAR :
  • 261030Z AUTO 23004KT 2500 BR OVC012 02/02 Q1034 TEMPO OVC003 BECMG 4000 BR

EXPIRED METARs :
  • 261000Z AUTO 25003KT 2200 BR OVC010 01/01 Q1034 TEMPO OVC003
  • 260930Z AUTO 20003KT 2200 BR OVC011 01/01 Q1034 TEMPO OVC003
  • 260900Z AUTO VRB01KT 1600 1300 R22/2000N BR OVC011 01/01 Q1034 TEMPO OVC003
  • 260830Z AUTO 22002KT 1800 1400 R22/2100D BR SCT003 OVC011 01/01 Q1034 TEMPO 0700 FG VV///
  • 260800Z AUTO 20005KT 1800 1400 R22/2200D BR BKN002 OVC016 01/01 Q1033 TEMPO 0700 FG VV///

TAF AMD TAF LFOP
Valid from the 26 at 08:00 until the 27 at 06:00 UTC


260830Z 2608/2706 VRB02KT 1500 BR SCT003 OVC012
TEMPO 2608/2612 OVC003
BECMG 2612/2615 4000
TEMPO 2615/2622 7000 NSW BKN017
TEMPO 2622/2706 2000 BKN007 OVC015
ATIS : +33 2 35 80 80 34
Met : +33 2 32 86 52 80



MET'MAP, your aeronautical weather chart ! - Copyright ORBIFLY December 2007 - Disclaimer

ORBIFLY MET'MAP TEAM :

Programming & Development : Alexandra Zaïnal
Original concept : Baudouin d'Aumeries
Technical & hardware support : Manuel Goepfert
Assistance : Marc-Olivier Méhu

Contact : metmap@orbifly.com




SOURCES & CREDITS :

   NOAA